Sagehen Creek Weather observations

Data are for observation ending at time listed.
 Day   Time    Ave.   Ave.  Ave.  Vector   Max.   Stn.    Total    Solar   Ave.  
  of    of     Air    Rel.  Wind   Wind    Wind   Baro.  Precip.   Rad.    Soil  
Year   Day     Temp.  Hum.  Speed  Dir.    Gust   Pres.                    Temp. 
2015   (PST)    F      %     mph   deg.    mph     mb.     in.     W/m2     F   
------------------------------------------------------------------------------
 149   12:40   76.1    14    2.7   252      5.3   837.0   15.00     967    999.0
 149   12:50   76.4    15    2.2   264      4.4   837.0   15.00     970    999.0
 149   13:00   75.6    16    2.7   236      7.3   837.1   15.00     902    999.0
 149   13:10   76.4    17    2.1   224      7.1   837.1   15.00     935    999.0
 149   13:20   76.9    16    2.0   246      5.1   836.9   15.00     790    999.0
 149   13:30   75.9    17    2.9   222      6.3   836.8   15.00     937    999.0
 149   13:40   76.8    18    2.2   241      7.3   836.5   15.00     908    999.0
 149   13:50   76.4    19    2.7   186      5.7   836.4   15.00     861    999.0
 149   14:00   75.4    20    2.4   189      7.3   836.3   15.00     695    999.0
 149   14:10   73.9    21    2.3   262      7.2   836.5   15.00     520    999.0
 149   14:20   74.8    21    2.9   211      7.3   836.7   15.00     875    999.0
 149   14:30   74.8    18    2.8   285      6.2   836.8   15.00     664    999.0
 149   14:40   74.3    21    2.3   194      4.3   836.8   15.00     595    999.0
 149   14:50   64.9    18    1.8   209      2.8     0.0   15.01     407    999.0
 149   15:00   73.1    22    2.0   217      6.3    13.9   15.01     425    999.0
 149   15:10   72.6    21    2.1   237      5.1   836.5   15.01     411    999.0
 149   15:20   73.1    19    3.0   278      7.8   836.6   15.00     699    999.0
 149   15:30   73.7    17    2.8   273      9.2   836.7   15.00     560    999.0
 149   15:40   73.1    20    2.2   252      5.4   836.7   15.01     385    999.0
 149   15:50   71.2    19    2.8   254      7.0   836.8   15.01     222    999.0
 149   16:00   70.3    21    2.1   256      6.3   836.9   15.01     290    999.0
 149   16:10   70.6    22    2.3   245      6.1   836.7   15.01     346    999.0
 149   16:20   71.0    20    2.3   257      4.9   836.6   15.01     358    999.0
 149   16:30   71.3    20    2.0   260      5.0   836.6   15.00     391    999.0
 149   16:40   70.6    20    2.1   205      5.4   836.9   15.01     235    999.0
 149   16:50   55.6    13    1.3   206      2.0     0.0   15.01     157    999.0
 149   17:00   68.6    20    1.7   259      4.7    13.9   15.01     176    999.0
 149   17:10   68.6    21    0.8   295      3.4   836.9   15.01     161    999.0
 149   17:20   68.4    21    0.7   177      2.2   836.6   15.01     144    999.0
 149   17:30   68.2    20    2.0   182      8.3   836.4   15.01     164    999.0
 149   17:40   68.6    21    0.6   243      2.7   836.4   15.01     117    999.0
 149   17:50   68.4    22    1.0   154      4.5   836.4   15.01      69    999.0
 149   18:00   67.1    24    1.3   156      4.3   836.4   15.01      63    999.0
 149   18:10   66.5    26    0.9   198      3.0   836.7   15.01      56    999.0
 149   18:20   66.0    26    0.8   138      2.9   836.8   15.01      34    999.0
 149   18:30   64.4    31    0.3    12      0.9   836.9   15.02      25    999.0
 149   18:40   62.7    37    0.3   294      1.5   836.7   15.02      20    999.0
 149   18:50   60.9    44    0.3   305      1.2   836.6   15.02      16    999.0
 149   19:00   59.3    45    0.2   262      0.8   836.5   15.02      11    999.0
 149   19:10   57.6    48    0.3   274      1.4   836.8   15.02       6    999.0
 149   19:20   56.2    52    0.0     0      0.0   836.7   15.02       3    999.0
 149   19:30   55.0    54    0.0   278      0.4   836.7   15.02       1    999.0
 149   19:40   53.8    57    0.1   262      0.8   836.9   15.02       0    999.0
 149   19:50   53.0    59    0.3   262      1.2   836.8   15.02       0    999.0
 149   20:00   52.2    63    0.1    74      0.6   836.7   15.02       0    999.0
 149   20:10   51.7    65    0.1   226      0.7   837.1   15.02       0    999.0
 149   20:20   51.3    66    0.1   191      0.7   837.2   15.02       0    999.0
 149   20:30   50.8    67    0.0     0      0.0   837.2   15.02       0    999.0
 149   20:40   50.2    68    0.1   284      0.7   836.8   15.02       0    999.0
 149   20:50   49.7    68    0.2   162      1.1   836.9   15.02       0    999.0
 149   21:00   49.2    68    0.2    56      1.1   837.0   15.02       0    999.0
 149   21:10   48.6    66    0.1    10      0.6   837.4   15.02       0    999.0
 149   21:20   48.2    68    0.2   205      1.5   837.4   15.02       0    999.0
 149   21:30   47.7    68    0.1   163      1.2   837.3   15.02       0    999.0
 149   21:40   47.2    70    0.0     0      0.0   837.4   15.02       0    999.0
 149   21:50   46.8    71    0.0   140      0.5   837.4   15.02       0    999.0
 149   22:00   46.6    71    0.2     4      1.1   837.4   15.02       0    999.0
 149   22:10   46.5    72    0.2   329      1.0   837.3   15.02       0    999.0
 149   22:20   46.3    72    0.0   254      0.6   837.4   15.02       0    999.0
 149   22:30   43.8    61    0.2   242      0.7    33.5   15.02       0    999.0
 149   22:40   46.0    73    0.1   260      0.9   837.1   15.02       0    999.0
 149   22:50   45.6    74    0.2    13      0.9   837.3   15.02       0    999.0
 149   23:00   45.5    73    0.4   299      1.4   837.5   15.02       0    999.0
 149   23:10   45.5    74    0.3   284      1.4   837.2   15.02       0    999.0
 149   23:20   45.4    74    0.4   314      1.7   837.4   15.02       0    999.0
 149   23:30   45.1    75    0.4   274      1.9   837.5   15.02       0    999.0
 149   23:40   45.0    75    0.6   315      1.7   837.5   15.02       0    999.0
 149   23:50   45.1    75    0.5   230      1.8   837.5   15.02       0    999.0
 150    0:00   45.2    75    0.5    48      2.1   837.4   15.02       0    999.0
 150    0:10   45.2    76    0.5   207      2.4   837.4   15.02       0    999.0
 150    0:20   45.3    76    0.7   280      2.8   837.3   15.02       0    999.0
 150    0:30   45.4    75    0.4   271      1.3   837.3   15.02       0    999.0
 150    0:40   45.3    76    0.1   322      0.7   837.3   15.02       0    999.0
 150    0:50   45.1    76    0.1   265      0.9   837.2   15.02       0    999.0
 150    1:00   45.0    77    0.3   281      1.4   837.0   15.02       0    999.0
 150    1:10   44.8    78    0.7   275      1.8   837.0   15.02       0    999.0
 150    1:20   44.6    79    0.5   234      1.1   837.0   15.02       0    999.0
 150    1:30   44.3    80    0.5   278      1.3   836.9   15.02       0    999.0
 150    1:40   43.8    81    0.3   260      1.6   837.0   15.02       0    999.0
 150    1:50   43.2    82    0.3   291      1.6   836.9   15.02       0    999.0
 150    2:00   42.4    84    0.2   216      0.9   836.8   15.02       0    999.0
 150    2:10   41.6    85    0.5   278      1.4   837.0   15.02       0    999.0
 150    2:20   41.1    86    0.5   261      1.7   836.8   15.02       0    999.0
 150    2:30   40.7    86    0.4   257      1.1   836.7   15.02       0    999.0
 150    2:40   40.3    87    0.3   249      1.4   836.8   15.02       0    999.0
 150    2:50   40.0    88    0.2   260      1.3   836.5   15.02       0    999.0
 150    3:00   39.7    87    0.3   278      1.6   836.3   15.02       0    999.0
 150    3:10   39.7    88    0.4   241      1.5   836.3   15.02       0    999.0
 150    3:20   39.5    87    0.3   192      1.4   836.3   15.02       0    999.0
 150    3:30   39.3    88    0.2   286      1.1   836.4   15.02       0    999.0
 150    3:40   39.2    88    0.2   297      1.7   836.6   15.02       0    999.0
 150    3:50   39.2    87    0.4   311      2.6   836.6   15.02       0    999.0
 150    4:00   39.2    87    0.2   284      1.2   836.6   15.02       0    999.0
 150    4:10   39.3    87    0.1   288      1.1   836.7   15.02       0    999.0
 150    4:20   39.2    87    0.3   250      1.6   836.6   15.02       0    999.0
 150    4:30   39.1    87    0.1   332      0.8   836.5   15.02       1    999.0
 150    4:40   39.0    87    0.2   239      0.9   836.8   15.02       3    999.0
 150    4:50   38.8    87    0.3   350      2.2   836.8   15.02       7    999.0
 150    5:00   38.8    87    0.2   283      1.5   836.8   15.02      17    999.0
 150    5:10   38.8    86    0.3   156      1.5   836.9   15.02      32    999.0
 150    5:20   39.0    86    0.1   328      1.1   836.9   15.02      49    999.0
 150    5:30   39.9    86    0.6    30      2.2   837.0   15.03      83    999.0
 150    5:40   42.0    84    0.6   330      3.0   837.1   15.03     185    999.0
 150    5:50   44.8    80    0.9    74      3.4   837.1   15.03     208    999.0
 150    6:00   47.0    76    0.3   293      1.9   837.1   15.03     163    999.0
 150    6:10   48.0    76    0.5   228      2.0   836.9   15.02     132    999.0
 150    6:20   48.7    78    0.4   142      1.5   837.0   15.02     123    999.0
 150    6:30   49.7    78    0.4    67      2.0   837.0   15.03     213    999.0
 150    6:40   52.6    75    0.6    50      2.2   836.6   15.03     315    999.0
 150    6:50   55.8    69    0.6    35      2.1   836.9   15.03     351    999.0
 150    7:00   57.9    52    1.1   308      3.9   837.2   15.02     342    999.0
 150    7:10   60.5    35    1.8   304      4.8   837.3   15.02     329    999.0
 150    7:20   61.8    28    2.1   300      5.8   837.3   15.02     342    999.0
 150    7:30   62.4    26    2.7   278      7.4   837.4   15.02     363    999.0
 150    7:40   62.9    26    1.9   275      4.2   836.9   15.02     399    999.0
 150    7:50   63.9    26    2.5   281      6.0   837.0   15.02     501    999.0
 150    8:00   64.5    24    1.7   223      4.7   837.0   15.02     456    999.0
 150    8:10   64.5    23    2.8   180      6.8   837.2   15.02     410    999.0
 150    8:20   64.8    22    2.4   281      5.9   837.4   15.02     527    999.0
 150    8:30   65.3    20    2.6   181      7.6   837.5   15.02     663    999.0
 150    8:40   66.5    20    2.4   144      8.4   837.0   15.02     703    999.0
 150    8:50   66.7    17    3.5   270     11.0   837.0   15.02     749    999.0
 150    9:00   67.4    18    3.2   276      9.7   836.9   15.01     633    999.0
 150    9:10   66.3    18    2.7   221      8.4   837.3   15.01     397    999.0
 150    9:20   65.7    18    2.1   140      7.5   837.4   15.01     395    999.0
 150    9:30   65.7    18    1.9   168      5.0   837.5   15.01     350    999.0
 150    9:40   65.4    20    1.8    98      4.7   837.6   15.01     392    999.0
 150    9:50   66.5    21    1.9   179      4.8   837.5   15.01     561    999.0
 150   10:00   67.7    21    2.0   291      5.9   837.4   15.01     694    999.0
 150   10:10   68.3    19    2.6   162      7.0   837.7   15.01     897    999.0
 150   10:20   69.0    20    2.0   204      5.0   837.7   15.01     820    999.0
 150   10:30   69.4    18    2.6   192      5.4   837.7   15.01     698    999.0
 150   10:40   68.7    18    2.3   197      9.9   837.5   15.01     553    999.0
 150   10:50   68.6    23    1.5   240      4.6   837.6   15.01     619    999.0
 150   11:00   69.5    21    2.2   211      4.3   837.6   15.01     799    999.0
 150   11:10   70.3    22    2.0   183      4.0   837.6   15.01     701    999.0
 150   11:20   70.6    22    1.9   234      5.7   837.5   15.01     673    999.0
 150   11:30   70.4    21    2.9   187      8.9   837.3   15.01     803    999.0
 150   11:40   70.2    22    2.8   193      7.4   837.3   15.01     774    999.0
 150   11:50   71.1    21    2.4   259      6.2   837.5   15.01     966    999.0
 150   12:00   72.1    23    2.3   141      4.4   837.7   15.01     970    999.0
 150   12:10   72.6    22    2.4   188      7.1   837.2   15.01     695    999.0
 150   12:20   72.4    21    1.7   152      7.2   837.4   15.00     814    999.0
 150   12:30   73.3    22    2.6   227      5.8   837.6   15.01     972    999.0

Return to Sagehen Creek graphs page.


Western Regional Climate Center,wrcc@dri.edu